Time;durP1;ratioP1;P1;durP2;ratioP2;P2;SDS_P1;SDS_P2;PMS_P1;PMS_P2;Temp;Humidity;BMP_temperature;BMP_pressure;BME280_temperature;BME280_humidity;BME280_pressure;Samples;Min_cycle;Max_cycle;Signal;HPM_P1;HPM_P2
2023/08/27 00:01:19;;;;;;;6.10;4.10;;;;;;;14.49;95.57;100833.53;4981272;28;20117;-77
2023/08/27 00:03:46;;;;;;;4.45;4.05;;;;;;;14.51;96.04;100836.09;4984122;28;20442;-76
2023/08/27 00:06:13;;;;;;;4.68;4.20;;;;;;;14.55;96.01;100846.50;4983863;28;20042;-77
2023/08/27 00:08:40;;;;;;;6.97;4.40;;;;;;;14.56;95.72;100853.53;4983473;28;20038;-77
2023/08/27 00:11:07;;;;;;;7.28;4.35;;;;;;;14.59;96.43;100842.78;4984971;28;20403;-75
2023/08/27 00:13:35;;;;;;;6.75;4.63;;;;;;;14.62;96.00;100855.03;4982351;28;20042;-75
2023/08/27 00:16:05;;;;;;;4.70;4.22;;;;;;;14.65;95.92;100852.22;4979418;28;20311;-76
2023/08/27 00:18:33;;;;;;;5.80;4.43;;;;;;;14.66;95.98;100853.09;4964041;28;20042;-76
2023/08/27 00:21:00;;;;;;;5.45;4.95;;;;;;;14.68;96.18;100841.50;4982530;28;20050;-76
2023/08/27 00:23:27;;;;;;;5.60;4.68;;;;;;;14.68;96.36;100844.16;4981927;28;20097;-75
2023/08/27 00:25:54;;;;;;;5.60;4.00;;;;;;;14.72;96.31;100840.41;4983321;28;20105;-74
2023/08/27 00:28:21;;;;;;;5.32;4.60;;;;;;;14.78;96.67;100843.69;4986133;28;20630;-74
2023/08/27 00:30:48;;;;;;;6.43;5.05;;;;;;;14.81;96.61;100852.38;4967699;28;20049;-74
2023/08/27 00:33:15;;;;;;;6.93;4.68;;;;;;;14.84;96.37;100868.16;4978210;28;20053;-76
2023/08/27 00:35:48;;;;;;;6.93;4.50;;;;;;;14.85;96.26;100867.22;4983876;28;20153;-76
2023/08/27 00:38:17;;;;;;;5.72;5.10;;;;;;;14.88;96.12;100884.78;4969550;28;20586;-74
2023/08/27 00:40:44;;;;;;;7.90;5.30;;;;;;;14.94;96.85;100871.25;4985366;28;20042;-74
2023/08/27 00:43:13;;;;;;;7.30;4.60;;;;;;;15.04;96.25;100866.34;4967710;28;20376;-74
2023/08/27 00:45:42;;;;;;;4.75;4.30;;;;;;;15.07;95.84;100859.06;4964061;28;20320;-74
2023/08/27 00:48:10;;;;;;;5.80;4.25;;;;;;;15.15;95.36;100860.50;4986578;28;20692;-74
2023/08/27 00:50:38;;;;;;;5.85;3.60;;;;;;;15.22;94.96;100852.16;4969791;28;20435;-74
2023/08/27 00:53:05;;;;;;;3.95;3.05;;;;;;;15.28;93.61;100850.13;4968469;28;20271;-74
2023/08/27 00:55:35;;;;;;;3.88;2.72;;;;;;;15.33;93.36;100856.94;4986435;28;20034;-74
2023/08/27 00:58:03;;;;;;;3.55;2.75;;;;;;;15.35;93.11;100846.22;4972457;28;20380;-74
2023/08/27 01:00:31;;;;;;;2.90;2.30;;;;;;;15.37;92.66;100829.28;4977468;28;20046;-76
2023/08/27 01:02:59;;;;;;;2.25;1.95;;;;;;;15.37;92.07;100815.16;4985629;28;20077;-76
2023/08/27 01:05:27;;;;;;;2.80;1.83;;;;;;;15.34;91.78;100802.88;4969780;28;20042;-76
2023/08/27 01:08:08;;;;;;;3.05;1.70;;;;;;;15.32;92.12;100793.25;4985501;28;20042;-75
2023/08/27 01:10:57;;;;;;;2.53;1.80;;;;;;;15.31;92.31;100780.94;4984054;28;20045;-75
2023/08/27 01:13:40;;;;;;;2.35;1.65;;;;;;;15.29;92.58;100766.88;4970136;28;20097;-77
2023/08/27 01:16:09;;;;;;;1.80;1.70;;;;;;;15.27;92.76;100758.97;4968313;28;20050;-76
2023/08/27 01:18:39;;;;;;;3.00;1.80;;;;;;;15.27;93.13;100755.47;4967184;28;20038;-76
2023/08/27 01:21:23;;;;;;;2.85;1.67;;;;;;;15.25;92.85;100762.66;4966605;28;20050;-77
2023/08/27 01:23:51;;;;;;;1.98;1.75;;;;;;;15.22;93.04;100764.50;4982388;28;20050;-76
2023/08/27 01:26:32;;;;;;;2.10;1.60;;;;;;;15.22;93.04;100755.69;4985397;28;20482;-76
2023/08/27 01:29:18;;;;;;;2.15;1.63;;;;;;;15.19;93.17;100755.84;4984492;28;20050;-77
2023/08/27 01:32:00;;;;;;;2.30;1.60;;;;;;;15.14;93.26;100755.25;4977131;28;20124;-77
2023/08/27 01:34:29;;;;;;;2.38;1.77;;;;;;;15.12;92.76;100757.09;4968391;28;20538;-76
2023/08/27 01:36:57;;;;;;;2.00;1.52;;;;;;;15.08;92.53;100759.06;4984513;28;20038;-76
2023/08/27 01:39:25;;;;;;;2.42;1.80;;;;;;;15.00;92.50;100740.88;4984393;28;20515;-77
2023/08/27 01:41:52;;;;;;;2.55;1.77;;;;;;;14.94;92.51;100740.31;4969440;28;20269;-77
2023/08/27 01:44:19;;;;;;;1.75;1.42;;;;;;;14.86;92.61;100738.91;4983948;28;20042;-77
2023/08/27 01:46:46;;;;;;;3.30;1.77;;;;;;;14.82;93.16;100753.25;4969866;28;20045;-77
2023/08/27 01:49:14;;;;;;;1.85;1.65;;;;;;;14.79;93.29;100758.72;4961732;28;20045;-75
2023/08/27 01:51:41;;;;;;;2.75;1.80;;;;;;;14.78;93.38;100751.69;4987062;28;20459;-76
2023/08/27 01:54:08;;;;;;;2.78;1.70;;;;;;;14.79;93.66;100755.19;4988032;28;20093;-75
2023/08/27 01:56:35;;;;;;;2.28;1.92;;;;;;;14.78;93.73;100754.34;4987578;28;20450;-75
2023/08/27 01:59:03;;;;;;;2.95;1.88;;;;;;;14.77;93.96;100749.97;4982930;28;20090;-73
2023/08/27 02:01:30;;;;;;;2.00;1.58;;;;;;;14.77;93.65;100757.06;4984742;28;20053;-74
2023/08/27 02:03:57;;;;;;;2.92;1.70;;;;;;;14.76;93.42;100750.91;4986346;28;20096;-73
2023/08/27 02:06:24;;;;;;;2.47;1.65;;;;;;;14.77;93.62;100757.06;4977318;28;20046;-72
2023/08/27 02:08:51;;;;;;;3.97;1.90;;;;;;;14.76;93.59;100748.25;4976542;28;20046;-72
2023/08/27 02:11:19;;;;;;;3.28;1.90;;;;;;;14.74;93.91;100755.44;4983576;28;20125;-72
2023/08/27 02:13:46;;;;;;;3.88;1.98;;;;;;;14.68;93.42;100761.88;4968915;28;20039;-73
2023/08/27 02:16:14;;;;;;;2.42;2.00;;;;;;;14.62;93.22;100758.66;4969539;28;20042;-72
2023/08/27 02:18:41;;;;;;;4.53;2.20;;;;;;;14.52;93.33;100745.81;4984095;28;20116;-73
2023/08/27 02:21:08;;;;;;;2.00;1.83;;;;;;;14.46;93.57;100748.78;4965308;28;20050;-72
2023/08/27 02:23:36;;;;;;;3.53;2.33;;;;;;;14.39;93.70;100732.31;4980354;28;20053;-72
2023/08/27 02:26:03;;;;;;;4.20;2.20;;;;;;;14.34;93.85;100736.97;4983475;28;20635;-72
2023/08/27 02:28:32;;;;;;;4.13;2.58;;;;;;;14.27;93.81;100736.41;4978132;28;20495;-72
2023/08/27 02:31:00;;;;;;;3.38;2.50;;;;;;;14.22;94.30;100735.75;4967655;28;20054;-71
2023/08/27 02:33:27;;;;;;;2.50;2.30;;;;;;;14.20;94.29;100747.38;4983890;28;20044;-72
2023/08/27 02:35:54;;;;;;;3.22;2.65;;;;;;;14.16;94.18;100744.00;4985377;28;20114;-71
2023/08/27 02:38:21;;;;;;;3.60;2.80;;;;;;;14.12;94.65;100753.91;4981893;28;20041;-72
2023/08/27 02:40:48;;;;;;;4.50;2.90;;;;;;;14.09;94.79;100745.25;4984463;28;20603;-74
2023/08/27 02:43:18;;;;;;;4.60;2.90;;;;;;;14.04;95.35;100742.78;4981526;28;20046;-73
2023/08/27 02:45:47;;;;;;;6.35;3.10;;;;;;;14.01;95.77;100742.06;4967952;28;20046;-74
2023/08/27 02:48:14;;;;;;;6.30;3.22;;;;;;;13.98;96.02;100740.41;4982063;28;20073;-73
2023/08/27 02:50:41;;;;;;;6.03;3.83;;;;;;;13.97;96.27;100736.03;4967233;28;20088;-73
2023/08/27 02:53:09;;;;;;;4.47;3.47;;;;;;;13.96;96.35;100735.19;4981421;28;20046;-74
2023/08/27 02:55:36;;;;;;;6.35;3.83;;;;;;;13.95;96.43;100736.13;4967059;28;20081;-75
2023/08/27 02:58:04;;;;;;;4.28;3.58;;;;;;;13.95;96.66;100746.72;4966074;28;20038;-77
2023/08/27 03:00:31;;;;;;;5.35;3.97;;;;;;;13.98;96.88;100743.06;4966238;28;20039;-77
2023/08/27 03:02:59;;;;;;;5.13;4.10;;;;;;;14.00;97.01;100738.56;4964404;28;20069;-73
2023/08/27 03:05:26;;;;;;;6.72;3.90;;;;;;;14.02;97.21;100752.59;4978115;28;20408;-75
2023/08/27 03:07:53;;;;;;;5.78;4.32;;;;;;;14.04;97.22;100749.88;4965040;28;20137;-75
2023/08/27 03:10:22;;;;;;;5.25;4.32;;;;;;;14.06;97.28;100751.53;4964097;28;20055;-76
2023/08/27 03:12:49;;;;;;;5.15;4.20;;;;;;;14.07;97.45;100752.41;4977735;28;20042;-74
2023/08/27 03:15:16;;;;;;;5.38;3.78;;;;;;;14.12;97.65;100756.56;4970101;28;20104;-74
2023/08/27 03:17:44;;;;;;;6.30;3.30;;;;;;;14.18;98.18;100768.66;4966438;28;20503;-72
2023/08/27 03:20:11;;;;;;;5.60;3.80;;;;;;;14.27;98.20;100768.22;4981351;28;20100;-75
2023/08/27 03:22:38;;;;;;;4.05;3.10;;;;;;;14.35;97.63;100770.50;4966242;28;20049;-74
2023/08/27 03:25:06;;;;;;;4.72;3.50;;;;;;;14.35;97.26;100770.50;4982988;28;20463;-75
2023/08/27 03:27:37;;;;;;;3.88;3.03;;;;;;;14.38;97.20;100765.06;4967187;28;20108;-75
2023/08/27 03:30:06;;;;;;;4.55;3.03;;;;;;;14.34;96.78;100758.19;4969628;28;20046;-76
2023/08/27 03:32:33;;;;;;;3.78;2.55;;;;;;;14.31;96.80;100757.47;4972103;28;20048;-76
2023/08/27 03:35:01;;;;;;;3.13;2.30;;;;;;;14.29;96.90;100747.78;4986127;28;20074;-75
2023/08/27 03:37:28;;;;;;;3.63;2.28;;;;;;;14.25;97.05;100748.88;4969711;28;20050;-76
2023/08/27 03:39:55;;;;;;;3.47;2.35;;;;;;;14.23;97.37;100749.88;4966770;28;20453;-76
2023/08/27 03:42:22;;;;;;;4.60;2.75;;;;;;;14.24;98.18;100748.97;4981252;28;20402;-76
2023/08/27 03:44:49;;;;;;;2.55;2.20;;;;;;;14.25;98.59;100754.19;4981090;28;20049;-75
2023/08/27 03:47:17;;;;;;;3.55;2.35;;;;;;;14.25;98.23;100756.84;4968175;28;20042;-76
2023/08/27 03:49:44;;;;;;;3.55;2.00;;;;;;;14.23;98.64;100761.34;4967723;28;20545;-74
2023/08/27 03:52:11;;;;;;;3.67;2.20;;;;;;;14.21;99.08;100754.41;4967171;28;20408;-74
2023/08/27 03:54:38;;;;;;;2.95;2.20;;;;;;;14.23;99.81;100764.00;4968213;28;20039;-74
2023/08/27 03:57:06;;;;;;;2.78;2.03;;;;;;;14.27;100.00;100778.84;4966908;28;20466;-75
2023/08/27 03:59:33;;;;;;;5.93;2.58;;;;;;;14.28;100.00;100767.31;4967302;28;20050;-74
2023/08/27 04:02:02;;;;;;;2.92;2.10;;;;;;;14.28;100.00;100775.25;4983888;28;20043;-74
2023/08/27 04:04:30;;;;;;;5.05;2.22;;;;;;;14.26;100.00;100769.16;4970214;28;20124;-74
2023/08/27 04:06:57;;;;;;;4.28;2.33;;;;;;;14.26;100.00;100763.84;4987267;28;20050;-75
2023/08/27 04:09:24;;;;;;;4.35;2.22;;;;;;;14.26;100.00;100777.13;4989398;28;20038;-74
2023/08/27 04:11:51;;;;;;;3.45;1.98;;;;;;;14.25;100.00;100770.09;4984907;28;20058;-74
2023/08/27 04:14:38;;;;;;;3.00;1.77;;;;;;;14.20;100.00;100784.50;4986616;28;20043;-73
2023/08/27 04:17:25;;;;;;;3.33;1.95;;;;;;;14.20;100.00;100787.13;4988110;28;20838;-73
2023/08/27 04:20:11;;;;;;;2.30;1.70;;;;;;;14.18;100.00;100789.88;4987827;28;20042;-73
2023/08/27 04:22:59;;;;;;;4.78;1.80;;;;;;;14.15;100.00;100774.09;4984718;28;20054;-75
2023/08/27 04:25:47;;;;;;;5.03;1.80;;;;;;;14.12;100.00;100763.63;4983263;28;20049;-74
2023/08/27 04:28:34;;;;;;;3.00;1.98;;;;;;;14.07;100.00;100765.66;4986824;28;20042;-76
2023/08/27 04:31:21;;;;;;;3.58;1.50;;;;;;;13.97;100.00;100762.53;4972221;28;20136;-75
2023/08/27 04:34:08;;;;;;;3.65;1.85;;;;;;;13.90;100.00;100769.06;4984663;28;20050;-77
2023/08/27 04:36:58;;;;;;;3.25;1.77;;;;;;;13.84;100.00;100778.16;4986482;28;20054;-77
2023/08/27 04:39:45;;;;;;;4.15;2.03;;;;;;;13.77;100.00;100771.41;4982957;28;20507;-75
2023/08/27 04:42:32;;;;;;;3.67;2.38;;;;;;;13.74;100.00;100755.66;4983396;28;20049;-75
2023/08/27 04:45:18;;;;;;;7.50;2.40;;;;;;;13.68;100.00;100762.06;4984819;28;20050;-77
2023/08/27 04:48:06;;;;;;;8.25;2.67;;;;;;;13.63;100.00;100764.94;4988219;28;20479;-75
2023/08/27 04:50:33;;;;;;;8.23;2.65;;;;;;;13.61;100.00;100769.44;4983677;28;20133;-75
2023/08/27 04:53:00;;;;;;;3.72;2.13;;;;;;;13.57;100.00;100775.81;4985851;28;20042;-77
2023/08/27 04:55:28;;;;;;;4.43;2.13;;;;;;;13.56;100.00;100776.72;4986502;28;20052;-79
2023/08/27 04:57:55;;;;;;;6.30;2.50;;;;;;;13.54;100.00;100773.28;4969249;28;20045;-77
2023/08/27 05:00:23;;;;;;;4.60;2.13;;;;;;;13.53;100.00;100776.00;4968193;28;20069;-77
2023/08/27 05:02:50;;;;;;;4.95;2.50;;;;;;;13.51;100.00;100778.72;4965756;28;20073;-77
2023/08/27 05:05:18;;;;;;;5.60;2.20;;;;;;;13.51;100.00;100789.31;4966012;28;20137;-77
2023/08/27 05:07:48;;;;;;;6.43;2.15;;;;;;;13.50;100.00;100787.56;4967248;28;20046;-81
2023/08/27 05:10:16;;;;;;;5.45;2.45;;;;;;;13.48;100.00;100778.88;4958912;28;20491;-80
2023/08/27 05:12:43;;;;;;;4.30;2.20;;;;;;;13.46;100.00;100770.97;4962945;28;20034;-77
2023/08/27 05:15:11;;;;;;;4.22;1.90;;;;;;;13.44;100.00;100766.66;4963246;28;20043;-76
2023/08/27 05:17:38;;;;;;;5.40;2.22;;;;;;;13.42;100.00;100766.75;4963361;28;20043;-75
2023/08/27 05:20:07;;;;;;;5.53;2.03;;;;;;;13.43;100.00;100780.84;4975226;28;20127;-75
2023/08/27 05:22:37;;;;;;;5.88;2.45;;;;;;;13.41;100.00;100780.03;4962886;28;21188;-74
2023/08/27 05:25:20;;;;;;;6.13;2.20;;;;;;;13.41;100.00;100774.75;4975170;28;20042;-74
2023/08/27 05:28:07;;;;;;;5.30;2.50;;;;;;;13.44;100.00;100771.97;4975107;28;20672;-76
2023/08/27 05:30:56;;;;;;;9.10;2.80;;;;;;;13.47;100.00;100771.84;4960482;28;20051;-74
2023/08/27 05:33:43;;;;;;;6.30;3.08;;;;;;;13.50;100.00;100769.03;4964950;28;20062;-76
2023/08/27 05:36:30;;;;;;;6.93;2.80;;;;;;;13.54;100.00;100770.63;4959846;28;20058;-75
2023/08/27 05:39:17;;;;;;;7.22;2.80;;;;;;;13.59;100.00;100771.28;4958675;28;20050;-74
2023/08/27 05:42:04;;;;;;;6.18;2.85;;;;;;;13.63;100.00;100762.28;4962284;28;20078;-75
2023/08/27 05:44:50;;;;;;;5.60;2.72;;;;;;;13.72;100.00;100760.16;4961747;28;20058;-74
2023/08/27 05:47:37;;;;;;;6.55;2.95;;;;;;;13.79;100.00;100766.88;4961006;28;20039;-75
2023/08/27 05:50:24;;;;;;;4.50;2.83;;;;;;;13.84;100.00;100775.50;4960106;28;20343;-74
2023/08/27 05:53:12;;;;;;;5.65;3.05;;;;;;;13.88;100.00;100771.78;4961159;28;20050;-74
2023/08/27 05:55:59;;;;;;;4.07;2.72;;;;;;;13.90;100.00;100772.56;4963756;28;20054;-74
2023/08/27 05:58:45;;;;;;;6.13;2.83;;;;;;;13.91;100.00;100776.09;4974468;28;20039;-76
2023/08/27 06:01:32;;;;;;;5.10;2.95;;;;;;;13.88;100.00;100763.84;4963163;28;20053;-75
2023/08/27 06:04:19;;;;;;;6.35;3.40;;;;;;;13.87;100.00;100762.13;4962339;28;20110;-72
2023/08/27 06:07:07;;;;;;;8.65;3.92;;;;;;;13.92;100.00;100765.41;4976915;28;20117;-72
2023/08/27 06:09:54;;;;;;;5.97;3.60;;;;;;;13.96;100.00;100760.81;4961355;28;20055;-74
2023/08/27 06:12:41;;;;;;;5.95;3.33;;;;;;;13.98;100.00;100751.91;4957205;28;20051;-73
2023/08/27 06:15:28;;;;;;;5.35;3.00;;;;;;;14.04;100.00;100742.78;4962957;28;20039;-72
2023/08/27 06:18:15;;;;;;;6.15;3.35;;;;;;;14.14;100.00;100744.06;4965309;28;20047;-72
2023/08/27 06:21:03;;;;;;;5.00;3.47;;;;;;;14.24;100.00;100746.31;4962157;28;20075;-72
2023/08/27 06:23:49;;;;;;;6.68;3.63;;;;;;;14.37;100.00;100736.81;4962737;28;20455;-72
2023/08/27 06:26:37;;;;;;;5.03;2.95;;;;;;;14.59;100.00;100738.44;4958244;28;20062;-72
2023/08/27 06:29:24;;;;;;;5.90;3.08;;;;;;;14.67;100.00;100743.41;4962885;28;20586;-72
2023/08/27 06:32:15;;;;;;;6.72;3.78;;;;;;;14.69;100.00;100747.69;4963652;28;20125;-72
2023/08/27 06:35:02;;;;;;;5.20;3.40;;;;;;;14.67;100.00;100749.56;4972758;28;20055;-72
2023/08/27 06:37:49;;;;;;;4.32;3.30;;;;;;;14.72;100.00;100750.22;4960997;28;20061;-72
2023/08/27 06:40:36;;;;;;;4.57;2.92;;;;;;;14.82;100.00;100739.13;4961857;28;20554;-72
2023/08/27 06:43:25;;;;;;;4.70;2.85;;;;;;;15.00;100.00;100740.00;4962780;28;20046;-72
2023/08/27 06:46:15;;;;;;;4.10;2.88;;;;;;;15.02;100.00;100743.44;4963000;28;20082;-72
2023/08/27 06:49:02;;;;;;;5.05;3.22;;;;;;;15.13;100.00;100742.91;4959010;28;20534;-72
2023/08/27 06:51:49;;;;;;;4.65;3.40;;;;;;;15.30;100.00;100736.72;4962259;28;20411;-73
2023/08/27 06:54:38;;;;;;;5.82;3.33;;;;;;;15.36;100.00;100736.41;4974870;28;20459;-72
2023/08/27 06:57:05;;;;;;;4.78;3.38;;;;;;;15.42;100.00;100732.56;4956116;28;20054;-73
2023/08/27 06:59:32;;;;;;;4.20;2.97;;;;;;;15.46;100.00;100734.97;4976447;28;20045;-73
2023/08/27 07:02:03;;;;;;;4.75;3.45;;;;;;;15.53;100.00;100736.38;4961994;28;20039;-75
2023/08/27 07:04:33;;;;;;;4.85;3.60;;;;;;;15.67;100.00;100738.28;4964595;28;20320;-73
2023/08/27 07:07:05;;;;;;;5.00;3.30;;;;;;;15.75;100.00;100745.00;4977547;28;20124;-74
2023/08/27 07:09:52;;;;;;;4.05;3.30;;;;;;;15.80;100.00;100748.25;4977477;28;20046;-73
2023/08/27 07:12:23;;;;;;;3.90;3.08;;;;;;;15.81;100.00;100745.53;4949014;28;20129;-72
2023/08/27 07:15:10;;;;;;;4.75;3.17;;;;;;;15.75;100.00;100747.66;4964993;28;20051;-75
2023/08/27 07:17:57;;;;;;;7.60;3.42;;;;;;;15.79;100.00;100749.19;4964444;28;20081;-73
2023/08/27 07:20:46;;;;;;;4.97;3.58;;;;;;;15.90;100.00;100743.34;4964851;28;20106;-74
2023/08/27 07:23:37;;;;;;;5.22;3.58;;;;;;;16.04;100.00;100748.75;4963478;28;20073;-71
2023/08/27 07:26:23;;;;;;;6.55;3.90;;;;;;;16.17;100.00;100754.28;4963681;28;20068;-72
2023/08/27 07:29:10;;;;;;;6.72;3.72;;;;;;;16.27;100.00;100751.97;4963379;28;20101;-73
2023/08/27 07:31:57;;;;;;;6.70;3.80;;;;;;;16.35;100.00;100751.53;4950610;28;20042;-73
2023/08/27 07:34:27;;;;;;;6.60;3.45;;;;;;;16.41;100.00;100743.19;4946608;28;20161;-73
2023/08/27 07:37:14;;;;;;;4.80;3.55;;;;;;;16.48;100.00;100746.38;4977408;28;20254;-72
2023/08/27 07:39:49;;;;;;;4.82;3.80;;;;;;;16.52;100.00;100748.78;4951660;28;20053;-73
2023/08/27 07:42:37;;;;;;;4.88;3.35;;;;;;;16.63;100.00;100748.19;4967923;28;20049;-73
2023/08/27 07:45:11;;;;;;;4.00;3.38;;;;;;;16.74;100.00;100753.72;4984888;28;20039;-72
2023/08/27 07:47:57;;;;;;;6.25;3.50;;;;;;;16.83;100.00;100744.34;4983114;28;20054;-73
2023/08/27 07:50:41;;;;;;;5.50;3.28;;;;;;;16.89;100.00;100754.63;4963242;28;20042;-73
2023/08/27 07:53:28;;;;;;;6.38;2.92;;;;;;;16.99;100.00;100752.34;4967059;28;20502;-72
2023/08/27 07:56:15;;;;;;;6.95;3.80;;;;;;;17.00;100.00;100746.06;4970660;28;20050;-69
2023/08/27 07:59:00;;;;;;;5.97;3.42;;;;;;;17.00;100.00;100748.72;4967285;28;20039;-70
2023/08/27 08:01:47;;;;;;;5.18;3.50;;;;;;;17.08;100.00;100737.63;4978443;28;20050;-70
2023/08/27 08:04:35;;;;;;;5.38;3.28;;;;;;;17.19;100.00;100745.84;4975278;28;20054;-70
2023/08/27 08:07:04;;;;;;;8.02;3.63;;;;;;;17.31;100.00;100741.56;4982566;28;20038;-70
2023/08/27 08:09:50;;;;;;;4.97;2.85;;;;;;;17.41;100.00;100743.69;4978023;28;20078;-70
2023/08/27 08:12:37;;;;;;;5.13;3.40;;;;;;;17.55;100.00;100741.00;4979089;28;20050;-71
2023/08/27 08:15:24;;;;;;;5.80;4.15;;;;;;;17.72;99.72;100745.31;4981412;28;20058;-71
2023/08/27 08:18:11;;;;;;;4.35;3.50;;;;;;;17.91;99.52;100747.69;4981895;28;20054;-70
2023/08/27 08:20:59;;;;;;;4.45;3.42;;;;;;;17.99;98.42;100752.59;4979016;28;20165;-70
2023/08/27 08:23:46;;;;;;;6.35;3.63;;;;;;;18.29;98.82;100756.94;4983432;28;20050;-71
2023/08/27 08:26:32;;;;;;;5.03;3.45;;;;;;;18.53;97.10;100753.59;4965702;28;20089;-71
2023/08/27 08:29:17;;;;;;;4.85;2.83;;;;;;;18.75;96.94;100759.25;4965786;28;20050;-72
2023/08/27 08:32:04;;;;;;;6.22;3.22;;;;;;;18.91;96.39;100756.41;4979931;28;20172;-71
2023/08/27 08:34:51;;;;;;;5.43;3.38;;;;;;;18.95;94.26;100765.09;4979151;28;20612;-71
2023/08/27 08:37:27;;;;;;;6.93;3.70;;;;;;;19.00;95.32;100763.00;4963193;28;20141;-71
2023/08/27 08:40:15;;;;;;;4.88;3.70;;;;;;;19.03;95.50;100769.94;4979323;28;20122;-71
2023/08/27 08:43:03;;;;;;;4.43;3.10;;;;;;;18.99;94.33;100765.75;4974961;28;20068;-70
2023/08/27 08:46:01;;;;;;;8.07;3.90;;;;;;;19.03;93.67;100760.09;4972793;28;20587;-70
2023/08/27 08:48:50;;;;;;;7.35;3.70;;;;;;;18.98;91.26;100756.91;4979258;28;20046;-71
2023/08/27 08:51:26;;;;;;;6.15;3.28;;;;;;;18.97;92.28;100757.00;4968359;28;20077;-75
2023/08/27 08:54:15;;;;;;;6.28;3.72;;;;;;;18.93;89.95;100751.00;4965842;28;20050;-74
2023/08/27 08:56:54;;;;;;;8.20;3.38;;;;;;;18.99;89.79;100747.94;4960244;28;20160;-73
2023/08/27 08:59:33;;;;;;;6.28;3.40;;;;;;;19.13;89.01;100748.81;4969582;28;21326;-73
2023/08/27 09:02:21;;;;;;;5.57;3.22;;;;;;;19.24;87.59;100740.91;4978336;28;20486;-74
2023/08/27 09:05:13;;;;;;;7.15;2.92;;;;;;;19.22;86.71;100735.69;4979772;28;20138;-74
2023/08/27 09:07:48;;;;;;;6.32;3.17;;;;;;;19.23;87.16;100733.84;4979504;28;20625;-73
2023/08/27 09:10:30;;;;;;;7.05;2.50;;;;;;;19.13;86.73;100727.44;4973361;28;20392;-73
2023/08/27 09:13:20;;;;;;;4.50;2.60;;;;;;;19.22;85.83;100718.81;4983551;28;20081;-73
2023/08/27 09:16:00;;;;;;;4.90;2.40;;;;;;;19.39;83.60;100720.28;4970669;28;20498;-74
2023/08/27 09:18:27;;;;;;;3.30;1.85;;;;;;;19.61;81.70;100718.78;4982985;28;20046;-74
2023/08/27 09:21:14;;;;;;;4.63;1.75;;;;;;;19.75;79.79;100710.66;4979300;28;20058;-74
2023/08/27 09:23:41;;;;;;;3.40;1.40;;;;;;;19.69;80.62;100711.94;4982132;28;20053;-74
2023/08/27 09:26:28;;;;;;;3.65;1.58;;;;;;;19.87;80.76;100706.25;4978223;28;20058;-75
2023/08/27 09:28:58;;;;;;;4.40;1.52;;;;;;;19.95;81.13;100705.72;4982103;28;20436;-76
2023/08/27 09:31:45;;;;;;;5.22;1.20;;;;;;;20.14;80.00;100706.09;4983480;28;20423;-74
2023/08/27 09:34:19;;;;;;;5.93;1.67;;;;;;;20.24;79.25;100708.97;4981426;28;20511;-74
2023/08/27 09:37:06;;;;;;;3.17;1.30;;;;;;;20.12;78.63;100697.31;4978124;28;20427;-75
2023/08/27 09:39:56;;;;;;;5.28;1.42;;;;;;;20.02;77.23;100705.19;4981254;28;20133;-75
2023/08/27 09:42:32;;;;;;;5.35;1.33;;;;;;;20.17;75.86;100705.88;4984021;28;20112;-75
2023/08/27 09:45:19;;;;;;;4.75;1.33;;;;;;;20.10;74.83;100703.75;4981219;28;20104;-74
2023/08/27 09:48:06;;;;;;;3.22;1.08;;;;;;;19.99;75.85;100712.56;4968243;28;20518;-74
2023/08/27 09:51:06;;;;;;;2.67;1.00;;;;;;;20.14;74.18;100708.78;4983906;28;20038;-75
2023/08/27 09:53:54;;;;;;;3.75;1.23;;;;;;;20.37;73.13;100700.88;4983579;28;20542;-75
2023/08/27 09:56:45;;;;;;;3.72;1.40;;;;;;;20.48;73.84;100700.94;4981788;28;20141;-75
2023/08/27 09:59:42;;;;;;;4.50;0.90;;;;;;;20.45;71.77;100697.63;4982764;28;20046;-74
2023/08/27 10:02:28;;;;;;;2.45;1.05;;;;;;;20.21;71.72;100700.28;4982816;28;20062;-74
2023/08/27 10:05:15;;;;;;;3.72;1.10;;;;;;;20.12;68.03;100705.34;4984005;28;20333;-74
2023/08/27 10:08:05;;;;;;;2.63;1.05;;;;;;;19.94;71.94;100694.16;4983446;28;20092;-74
2023/08/27 10:11:04;;;;;;;6.85;1.40;;;;;;;19.96;73.06;100692.22;4984352;28;20578;-75
2023/08/27 10:13:51;;;;;;;3.15;1.05;;;;;;;19.98;70.67;100692.97;4981158;28;20197;-74
2023/08/27 10:16:39;;;;;;;3.15;1.02;;;;;;;19.92;71.08;100693.44;4984094;28;20068;-74
2023/08/27 10:19:27;;;;;;;1.92;0.98;;;;;;;20.06;71.15;100688.88;4983291;28;20050;-74
2023/08/27 10:22:16;;;;;;;1.73;0.90;;;;;;;20.24;68.91;100686.69;4983632;28;20152;-74
2023/08/27 10:25:06;;;;;;;4.88;1.15;;;;;;;20.35;65.52;100689.44;4980904;28;20057;-74
2023/08/27 10:27:53;;;;;;;3.55;0.80;;;;;;;20.41;67.00;100683.59;4983517;28;20515;-74
2023/08/27 10:30:41;;;;;;;3.10;1.27;;;;;;;20.48;63.23;100697.38;4983660;28;20637;-76
2023/08/27 10:33:28;;;;;;;1.85;0.85;;;;;;;20.41;66.75;100688.97;4981708;28;20136;-73
2023/08/27 10:36:28;;;;;;;3.35;0.82;;;;;;;20.51;65.54;100683.78;4983871;28;20046;-73
2023/08/27 10:39:03;;;;;;;3.58;0.90;;;;;;;20.43;66.20;100687.03;4965563;28;20165;-74
2023/08/27 10:41:39;;;;;;;4.03;0.90;;;;;;;20.40;66.94;100684.56;4965496;28;20229;-74
2023/08/27 10:44:09;;;;;;;2.10;0.82;;;;;;;20.38;67.74;100683.84;4982105;28;20129;-73
2023/08/27 10:46:37;;;;;;;4.00;1.00;;;;;;;20.39;65.16;100687.38;4983971;28;20035;-72
2023/08/27 10:49:17;;;;;;;6.38;1.40;;;;;;;20.50;64.45;100687.44;4978465;28;20069;-73
2023/08/27 10:51:44;;;;;;;4.40;1.10;;;;;;;20.61;64.85;100684.81;4985259;28;20440;-74
2023/08/27 10:54:25;;;;;;;2.88;1.17;;;;;;;20.67;65.91;100679.94;4985158;28;20466;-76
2023/08/27 10:56:55;;;;;;;5.85;1.40;;;;;;;20.64;66.69;100678.34;4982888;28;20411;-76
2023/08/27 10:59:28;;;;;;;3.72;1.02;;;;;;;20.60;64.52;100679.56;4983894;28;20046;-76
2023/08/27 11:02:09;;;;;;;2.53;0.75;;;;;;;20.58;65.36;100684.19;4983207;28;20042;-75
2023/08/27 11:04:44;;;;;;;2.40;0.80;;;;;;;20.53;64.73;100679.16;4979150;28;20049;-74
2023/08/27 11:07:14;;;;;;;3.17;1.15;;;;;;;20.65;64.07;100677.38;4982143;28;20058;-75
2023/08/27 11:09:55;;;;;;;2.10;0.90;;;;;;;20.69;65.31;100670.84;4983250;28;20565;-74
2023/08/27 11:12:42;;;;;;;2.65;0.90;;;;;;;20.96;63.50;100663.53;4979639;28;20054;-74
2023/08/27 11:15:15;;;;;;;4.95;1.20;;;;;;;20.96;61.26;100658.16;4978759;28;20049;-75
2023/08/27 11:18:21;;;;;;;5.43;1.00;;;;;;;20.82;62.46;100662.75;4976587;28;20050;-75
2023/08/27 11:20:54;;;;;;;3.65;0.85;;;;;;;20.74;62.30;100665.16;4966276;28;20038;-76
2023/08/27 11:23:45;;;;;;;4.13;1.00;;;;;;;20.82;61.52;100676.13;4981329;28;20086;-76
2023/08/27 11:26:14;;;;;;;5.82;0.88;;;;;;;20.77;60.99;100673.81;4984410;28;20141;-76
2023/08/27 11:28:44;;;;;;;2.80;0.70;;;;;;;21.01;63.10;100672.03;4982496;28;20061;-76
2023/08/27 11:31:12;;;;;;;5.30;0.98;;;;;;;21.02;64.09;100676.44;4984132;28;20521;-75
2023/08/27 11:33:40;;;;;;;1.58;0.57;;;;;;;21.02;64.18;100674.59;4983688;28;20045;-76
2023/08/27 11:36:07;;;;;;;2.92;1.08;;;;;;;21.01;63.46;100672.88;4983821;28;20350;-75
2023/08/27 11:38:35;;;;;;;2.15;0.70;;;;;;;20.88;60.87;100672.97;4981730;28;20120;-74
2023/08/27 11:41:04;;;;;;;3.63;0.95;;;;;;;20.76;61.42;100671.22;4964237;28;20057;-74
2023/08/27 11:43:33;;;;;;;3.38;0.70;;;;;;;20.63;61.99;100688.22;4979914;28;20046;-75
2023/08/27 11:46:00;;;;;;;3.28;0.90;;;;;;;20.45;62.84;100693.13;4983904;28;20050;-73
2023/08/27 11:48:27;;;;;;;3.30;0.90;;;;;;;20.37;63.66;100700.00;4984660;28;20105;-74
2023/08/27 11:50:55;;;;;;;3.67;0.80;;;;;;;20.31;62.43;100702.19;4983710;28;20066;-75
2023/08/27 11:53:23;;;;;;;2.08;0.77;;;;;;;20.26;62.85;100701.66;4981322;28;20053;-74
2023/08/27 11:55:50;;;;;;;2.75;0.80;;;;;;;20.20;63.23;100707.47;4984653;28;20121;-74
2023/08/27 11:58:19;;;;;;;2.33;0.88;;;;;;;20.10;62.76;100707.28;4983423;28;20058;-74
2023/08/27 12:00:54;;;;;;;3.30;0.90;;;;;;;19.92;61.52;100743.38;4981015;28;20066;-75
2023/08/27 12:03:24;;;;;;;3.05;0.50;;;;;;;19.43;58.25;100755.69;4982207;28;20546;-75
2023/08/27 12:05:52;;;;;;;0.60;0.30;;;;;;;18.89;55.44;100773.50;4983417;28;20034;-74